Startpagina
METAR-TAF:

METAR-TAF

Vliegvelden :

Harbin, China

breedte: 45-45N, lengte: 126-46E, hoogte: 143 m

Actueel weer

Dit bericht is 23 minuten geleden gemaakt, om 18:00 UTC
Wind 4 kt uit het zuidoosten
Temperatuur 11°C
Vochtigheid 71%
Druk 1014 hPa
Zicht 10 km of meer
geen wolken onder 1500 m en geen cumulonimbus

METAR: ZYHB 191800Z 14002MPS CAVOK 11/06 Q1014 NOSIG

Tijdstip: 02:23 (18:23 UTC)

Verwachting

Dit bericht is 5 uur en het 13 minuten geleden gemaakt, om 13:10 UTC
Verwachting geldig van 19 om 18 UTC tot 20 om 18 UTC
Wind 8 kt uit het zuidzuidoosten met uitschieters tot 19 kt
Zicht: 6000 m
Verspreide wolken op 3000 ft

TAF: ZYHB 191310Z 1918/2018 16004G10MPS 6000 SCT030 TX25/2006Z TN08/1921Z

Waarnemingen en weersverwachtingen van meer dan 4000 vliegvelden (METAR en TAF).

De beschikbare stations zijn de gele en rode punten op de kaart.

Ga met uw muis naar het station om de naam te zien.

Klik dan om waarnemingen en weersverwachtingen te zien.

kaart wijzigen: klik op de groene knoppen met een zwart kruis om in te zoomen, op de groene knop met een streepje om uit te zoomen of op de groene pijlen voor aangrenzende kaarten.


METAR-TAF: